航空気象通報

ウインドサーファーのための航空気象通報による風予報です。

2/29-3/2の航空気象通報

2016年02月29日 23時20分07秒 | TAF
羽田空港
TAF RJTT 291106Z 2912/0118 32016KT 9999 FEW030
TEMPO 2915/2920 32022G32KT
BECMG 0100/0103 20006KT
BECMG 0106/0109 34016KT
日本時間29日21時-1日09時:320度から16ノットの風
但し、1日00-05時の間:ときどき320度から22ノット、突風32ノット
09-12時:風が変化
12-15時:200度から6ノットの風
15-18時:風が変化
18時-2日02時:340度から16ノットの風

静岡空港
TAF RJNS 291105Z 2912/0118 27018KT 9999 FEW030
TEMPO 2912/2918 27022G32KT
TEMPO 0100/0109 27024G34KT
日本時間29日21時-2日03時:270度から18ノットの風
但し、29日21時-1日03時の間:ときどき270度から22ノット、突風32ノット
但し、1日09-18時の間:ときどき270度から24ノット、突風34ノット

福岡空港
TAF RJFF 291105Z 2912/0118 32015G25KT 9999 FEW030 BKN040
TEMPO 2912/2914 4000 -SHSN
BECMG 0106/0109 31005KT
BECMG 0112/0115 16006KT
日本時間29日21時-1日15時:320度から15ノット、突風25ノット
15-18時:風が変化
18-21時:310度から5ノットの風
21-24時:風が変化
2日00-03時:160度から6ノットの風

那覇空港
TAF ROAH 291105Z 2912/0118 01020KT 9999 FEW030 SCT045
TEMPO 2912/2914 36025G35KT
BECMG 0112/0115 05008KT
日本時間29日21時-1日21時:010度から20ノットの風
21-24時:風が変化
2日00-03時:050度から8ノットの風

石垣空港
TAF ROIG 291109Z 2912/0118 03016KT 9999 FEW030 SCT045
TEMPO 2912/2915 02020G30KT
日本時間29日21時-2日03時:030度から16ノットの風
但し、29日21-24時の間:ときどき020度から20ノット、突風30ノット

マウイのカフルイ空港
PHOG 291147Z 2912/0112 15005KT P6SM SKC
FM292100 36008KT P6SM VCSH FEW035 SCT050
FM010600 25005KT P6SM SCT035 BKN050
FM011000 19008KT P6SM FEW035 SCT050 AMD NOT SKED
ハワイ時間29日02-11時:150度から5ノットの風
11-20時:360度から8ノットの風
20時-1日01時:250度から5ノットの風
01-02時:190度から8ノットの風

サイパン空港
TAF PGSN 291142Z 2912/0112 08011KT P6SM VCSH SCT020 SCT070
マリアナ時間29日22時-1日22時:080度から11ノットの風
コメント
この記事をはてなブックマークに追加

2/28-3/1の航空気象通報

2016年02月28日 23時31分32秒 | TAF

羽田空港
TAF RJTT 281108Z 2812/2918 36006KT 9999 FEW020 BKN040
BECMG 2822/2824 20010KT
BECMG 2900/2903 21020KT
TEMPO 2900/2909 21022G32KT
BECMG 2909/2912 30018KT
日本時間28日21時-29日07時:360度から6ノットの風
07-09時:風が変化
09時:200度から10ノットの風
09-12時:風が変化
12-18時:210度から20ノットの風
但し、09-18時の間:ときどき210度から22ノット、突風32ノット
18-21時:200度から18ノットの風
18-21時:風が変化
21時-1日03時:300度から18ノットの風

静岡空港
TAF RJNS 281106Z 2812/2918 36005KT 9999 FEW015 BKN030
TEMPO 2816/2820 3000 SHRA BR FEW003 BKN005
TEMPO 2820/2824 4000 -SHRA BR FEW005 BKN008
BECMG 2900/2903 24012KT
TEMPO 2900/2903 3000 TSRA FEW005 BKN008 FEW020CB
BECMG 2903/2906 26024G34KT
日本時間28日21時-29日09時:360度から5ノットの風
09-12時:風が変化
09-12時:240度から12ノットの風
12-15時:風が変化
15時-1日03時:260度から24ノット、突風34ノット

但し、29日01-09時の間:ときどき
但し、29日09-12時の間:ときどき

福岡空港
TAF RJFF 281117Z 2812/2918 18008KT 8000 -SHRA FEW010 SCT025 BKN030
BECMG 2814/2816 29015G25KT
TEMPO 2815/2821 4500 -SHRA BR
TEMPO 2903/2909 4000 SHRA BR
日本時間28日21-23時:180度から8ノットの風
23時-29日01時:風が変化
01時-1日03時:290度から15ノット、突風25ノット

那覇空港
TAF ROAH 281106Z 2812/2918 35010KT 9999 FEW020
BECMG 2821/2823 36024KT
日本時間28日21時-29日06時:350度から10ノットの風
06-08時:風が変化
08時-1日03時:360度から24ノットの風

石垣空港
TAF ROIG 281109Z 2812/2918 36006KT 9999 FEW025
BECMG 2822/2824 01020KT
TEMPO 2823/2906 01022G32KT
日本時間28日21時-29日07時:360度から6ノットの風
07-09時:風が変化
09時-1日03時:010度から20ノットの風
但し、29日08-15時の間:ときどき010度から22ノット、突風32ノット

マウイのカフルイ空港
PHOG 281141Z 2812/2912 VRB03KT P6SM FEW035 SCT060
FM282000 32009KT P6SM FEW035 SCT060
FM290600 VRB03KT P6SM FEW035 SCT060 AMD NOT SKED
ハワイ時間28日02-10時:風向不定3ノットの風
10-20時:320度から9ノットの風
20時-29日02時:風向不定3ノットの風

サイパン空港
TAF PGSN 281141Z 2812/2912 08015KT P6SM VCSH SCT019 BKN080
マリアナ時間28日22時-29日22時:080度から15ノットの風

コメント
この記事をはてなブックマークに追加

2/27-2/29の航空気象通報

2016年02月27日 21時46分13秒 | TAF

羽田空港
TAF RJTT 271105Z 2712/2818 22016KT 9999 FEW030
BECMG 2715/2717 28008KT
BECMG 2722/2724 04012KT
BECMG 2800/2803 12012KT
BECMG 2812/2815 32004KT
日本時間27日21-24時:220度から16ノットの風
28日00-02時:風が変化
02-07時:280度から8ノットの風
07-09時:風が変化
09時:040度から12ノットの風
09-12時:風が変化
12-21時:120度から12ノットの風
21時-29日03時:320度から4ノットの風

静岡空港
TAF RJNS 271105Z 2712/2818 27012KT 9999 FEW030
BECMG 2812/2815 34004KT
日本時間27日21時-28日21時:270度から12ノットの風
21-24時:風が変化
29日00-03時:340度から4ノットの風

福岡空港
TAF RJFF 271107Z 2712/2818 16008KT 9999 FEW030
日本時間27日21時-29日03時:160度から8ノットの風

那覇空港
TAF ROAH 271105Z 2712/2818 07009KT 9999 FEW015 BKN040
TEMPO 2712/2715 3000 RA
日本時間27日21時-29日03時:070度から9ノットの風

但し、27日21-24時の間:ときどき

石垣空港
TAF ROIG 271108Z 2712/2818 36010KT 9999 FEW020 BKN045
日本時間27日21時-29日03時:360度から10ノットの風

マウイのカフルイ空港
PHOG 271123Z 2712/2812 06004KT P6SM FEW045
FM272000 05014KT P6SM FEW030 SCT045
FM280500 07005KT P6SM FEW030 SCT045 AMD NOT SKED
ハワイ時間27日02-10時:060度から4ノットの風
10-19時:050度から14ノットの風
19時-28日02時:070度から5ノットの風

サイパン空港
TAF PGSN 271140Z 2712/2812 06010G16KT P6SM VCSH SCT020 BKN100
FM280000 05016G26KT P6SM VCSH SCT020 SCT050 SCT120
マリアナ時間27日22時-28日10時:060度から10ノット、突風16ノット

10-22時:050度から16ノット、突風26ノット

コメント
この記事をはてなブックマークに追加

2/25-2/27の航空気象通報

2016年02月26日 23時18分40秒 | TAF

羽田空港
TAF RJTT 261105Z 2612/2718 34012KT 9999 FEW030
BECMG 2700/2703 12006KT
BECMG 2703/2706 20018KT
BECMG 2715/2718 26008KT
日本時間26日21時-27日09時:340度から12ノットの風
09-12時:風が変化
12時:120度から6ノットの風
12-15時:風が変化
15-24時:200度から18ノットの風
28日00-03時:風が変化
03時:260度から8ノットの風

静岡空港
TAF RJNS 261105Z 2612/2718 27014KT 9999 FEW030
TEMPO 2612/2613 27018G28KT
日本時間26日21時-28日03時:270度から14ノットの風
但し、26日21-22時の間:ときどき270度から18ノット、突風28ノット

福岡空港
TAF RJFF 261107Z 2612/2718 15008KT 9999 FEW040
BECMG 2700/2703 25012KT
TEMPO 2700/2706 25015G25KT -TSRA FEW015 BKN030 FEW030CB BKN040
BECMG 2709/2712 15008KT
日本時間26日21時-27日09時:150度から8ノットの風
09-12時:風が変化
12-18時:250度から12ノットの風
但し、09-15時の間:ときどき250度から15ノット、突風25ノット
18-21時:風が変化
21時-28日03時:150度から8ノットの風

但し、09-15時の間:ときどき

那覇空港
TAF ROAH 261109Z 2612/2718 04006KT 9999 FEW035
日本時間26日21時-28日03時:040度から6ノットの風

石垣空港
TAF ROIG 261117Z 2612/2718 08015KT 9999 FEW020 BKN030
BECMG 2621/2623 14012KT
TEMPO 2703/2706 4000 SHRA
BECMG 2706/2709 22010KT
日本時間26日21時-27日06時:080度から15ノットの風
06-08時:風が変化
08-15時:140度から12ノットの風
15-18時:風が変化
18時-28日03時:220度から10ノットの風

但し、27日12-15時の間:ときどき

マウイのカフルイ空港
PHOG 261122Z 2612/2712 17004KT P6SM FEW030 SCT045
FM262100 04011KT P6SM FEW030 SCT050
FM270500 06005KT P6SM FEW030 SCT050 AMD NOT SKED
ハワイ時間26日02-11時:170度から4ノットの風
11-19時:040度から11ノットの風
19時-27日02時:060度から5ノットの風

サイパン空港
TAF PGSN 261132Z 2612/2712 06014KT P6SM VCSH SCT025
FM270000 07018G24KT P6SM VCSH SCT025
マリアナ時間26日22時-27日10時:060度から14ノットの風
10-22時:070度から18ノット、突風24ノット

コメント
この記事をはてなブックマークに追加

2/25-2/27の航空気象通報

2016年02月26日 00時13分39秒 | TAF

羽田空港
TAF RJTT 251106Z 2512/2618 20008KT 9999 FEW020 BKN030
BECMG 2512/2514 34010KT
BECMG 2603/2606 16012KT
BECMG 2609/2612 36006KT
日本時間25日21時:200度から8ノットの風
21-23時:風が変化
23時-26日12時:340度から10ノットの風
12-15時:風が変化
15-18時:160度から12ノットの風
18-21時:風が変化
21時-27日03時:360度から6ノットの風

静岡空港
TAF RJNS 251105Z 2512/2618 27016KT 9999 FEW030
TEMPO 2600/2609 27020G30KT
日本時間25日21時-27日03時:270度から16ノットの風
但し、26日09-18時の間:ときどき270度から20ノット、突風30ノット

福岡空港
TAF RJFF 251106Z 2512/2618 14005KT 9999 FEW040
BECMG 2600/2603 28006KT
BECMG 2609/2612 16008KT
日本時間25日21時-26日09時:140度から5ノットの風
09-12時:風が変化
12-18時:280度から6ノットの風
18-21時:風が変化
21時-27日03時:160度から8ノットの風

那覇空港
TAF ROAH 251107Z 2512/2618 05007KT 9999 FEW030 SCT040
日本時間25日21時-27日03時:050度から7ノットの風

石垣空港
TAF ROIG 251110Z 2512/2618 05015KT 9999 SCT030 BKN045
日本時間25日21時-27日03時:050度から15ノットの風

マウイのカフルイ空港
PHOG 251357Z 2514/2612 02008KT P6SM VCSH SCT025 BKN045
TEMPO 2514/2516 -SHRA BKN025
FM252100 04015G23KT P6SM FEW025 SCT045
FM260400 06008KT P6SM FEW035 SCT050 AMD NOT SKED
ハワイ時間25日02-11時:020度から8ノットの風
11-18時:040度から15ノット、突風23ノット

18時-26日02時:060度から8ノットの風

サイパン空港
TAF PGSN 251136Z 2512/2612 07014KT P6SM VCSH SCT025 SCT060
FM252300 07016G22KT P6SM VCSH SCT025 SCT060
マリアナ時間25日22時-26日09時:070度から14ノットの風
09-22時:070度から16ノット、突風22ノット

コメント
この記事をはてなブックマークに追加